createdAt,value
2023-04-02T00:00:00.634Z,6.3
2023-04-02T00:01:08.113Z,6.3
2023-04-02T00:02:14.149Z,6.3
2023-04-02T00:03:21.331Z,6.3
2023-04-02T00:04:27.834Z,6.4
2023-04-02T00:05:35.158Z,6.4
2023-04-02T00:06:42.108Z,6.5
2023-04-02T00:07:49.178Z,6.6
2023-04-02T00:08:56.348Z,6.7
2023-04-02T00:10:02.893Z,6.8
2023-04-02T00:11:09.903Z,6.8
2023-04-02T00:12:17.004Z,6.9
2023-04-02T00:13:24.225Z,7
2023-04-02T00:14:31.218Z,7
2023-04-02T00:15:37.818Z,7
2023-04-02T00:16:45.013Z,7.1
2023-04-02T00:17:52.016Z,7.1
2023-04-02T00:18:59.061Z,7.1
2023-04-02T00:20:06.336Z,7.1
2023-04-02T00:21:12.955Z,7.1
2023-04-02T00:22:20.177Z,7.1
2023-04-02T00:23:27.132Z,7.1
2023-04-02T00:24:34.196Z,7.1
2023-04-02T00:26:47.775Z,7.1
2023-04-02T00:27:54.979Z,7.1
2023-04-02T00:29:02.171Z,7.1
2023-04-02T00:30:09.232Z,7.1
2023-04-02T00:31:16.283Z,7.1
2023-04-02T00:32:22.943Z,7.1
2023-04-02T00:33:29.986Z,7.1
2023-04-02T00:34:37.009Z,7.1
2023-04-02T00:35:44.131Z,7.1
2023-04-02T00:36:51.347Z,7.1
2023-04-02T00:37:57.774Z,7.1
2023-04-02T00:39:04.967Z,7.1
2023-04-02T00:40:12.172Z,7.1
2023-04-02T00:41:19.444Z,7.1
2023-04-02T00:42:26.341Z,7.1
2023-04-02T00:43:32.825Z,7.1
2023-04-02T00:44:40.632Z,7.1
2023-04-02T00:45:47.195Z,7.1
2023-04-02T00:46:54.377Z,7.1
2023-04-02T00:48:01.489Z,7.1
2023-04-02T00:49:08.004Z,7.1
2023-04-02T00:50:14.907Z,7.1
2023-04-02T00:52:29.234Z,7.1
2023-04-02T00:53:35.725Z,7.1
2023-04-02T00:54:43.057Z,7.1
2023-04-02T00:55:50.029Z,7.1
2023-04-02T00:56:57.087Z,7.1
2023-04-02T00:58:04.272Z,7.1
2023-04-02T00:59:10.697Z,7.1
2023-04-02T01:00:18.040Z,7.2
2023-04-02T01:01:25.123Z,7.1
2023-04-02T01:02:32.588Z,7.1
2023-04-02T01:03:39.337Z,7.1
2023-04-02T01:04:45.843Z,7.1
2023-04-02T01:05:52.851Z,7.1
2023-04-02T01:07:00.215Z,7.1
2023-04-02T01:08:07.216Z,7.1
2023-04-02T01:09:14.170Z,7.1
2023-04-02T01:10:20.884Z,7.1
2023-04-02T01:11:27.895Z,7.1
2023-04-02T01:12:34.991Z,7.1
2023-04-02T01:13:42.106Z,7.1
2023-04-02T01:14:49.140Z,7.1
2023-04-02T01:15:55.807Z,7.1
2023-04-02T01:17:02.996Z,7.1
2023-04-02T01:18:09.934Z,7.1
2023-04-02T01:19:17.301Z,7.1
2023-04-02T01:20:24.293Z,7.1
2023-04-02T01:21:30.876Z,7.1
2023-04-02T01:22:37.944Z,7.1
2023-04-02T01:23:44.996Z,7.1
2023-04-02T01:24:52.239Z,7.1
2023-04-02T01:25:59.315Z,7.1
2023-04-02T01:27:05.888Z,7.1
2023-04-02T01:28:13.608Z,7.1
2023-04-02T01:30:27.655Z,7.1
2023-04-02T01:31:34.392Z,7.1
2023-04-02T01:32:40.887Z,7.1
2023-04-02T01:33:48.019Z,7.1
2023-04-02T01:34:55.010Z,7.1
2023-04-02T01:36:02.256Z,7.1
2023-04-02T01:37:09.159Z,7.1
2023-04-02T01:38:15.902Z,7.1
2023-04-02T01:39:22.992Z,7.1
2023-04-02T01:40:29.956Z,7.1
2023-04-02T01:41:37.298Z,7.1
2023-04-02T01:42:44.353Z,7.1
2023-04-02T01:43:50.806Z,7.1
2023-04-02T01:44:57.986Z,7.1
2023-04-02T01:46:05.011Z,7.1
2023-04-02T01:47:12.223Z,7.1
2023-04-02T01:48:19.347Z,7.1
2023-04-02T01:49:25.958Z,7.1
2023-04-02T01:50:33.046Z,7.1
2023-04-02T01:51:40.129Z,7.1
2023-04-02T01:52:47.289Z,7.1
2023-04-02T01:53:54.388Z,7.1
2023-04-02T01:55:00.920Z,7.1
2023-04-02T01:56:08.010Z,7.1
2023-04-02T01:57:15.029Z,7.1
2023-04-02T01:58:22.309Z,7.1
2023-04-02T01:59:28.841Z,7.1
2023-04-02T02:00:35.968Z,7.1
2023-04-02T02:01:43.090Z,7.1
2023-04-02T02:02:50.028Z,7.1
2023-04-02T02:03:57.295Z,7.1
2023-04-02T02:05:03.870Z,7.1
2023-04-02T02:06:10.779Z,7.1
2023-04-02T02:07:18.054Z,7.1
2023-04-02T02:08:25.081Z,7.1
2023-04-02T02:09:32.142Z,7.1
2023-04-02T02:10:38.811Z,7.1
2023-04-02T02:11:45.829Z,7.1
2023-04-02T02:12:53.040Z,7.1
2023-04-02T02:14:00.187Z,7
2023-04-02T02:15:07.390Z,7
2023-04-02T02:16:13.929Z,7
2023-04-02T02:17:20.968Z,7
2023-04-02T02:18:28.179Z,7
2023-04-02T02:20:42.276Z,7
2023-04-02T02:21:48.901Z,7
2023-04-02T02:22:55.962Z,7
2023-04-02T02:24:03.108Z,7
2023-04-02T02:25:10.033Z,6.9
2023-04-02T02:26:17.301Z,6.9
2023-04-02T02:27:23.925Z,6.9
2023-04-02T02:28:30.892Z,6.9
2023-04-02T02:29:38.067Z,6.9
2023-04-02T02:30:45.069Z,6.9
2023-04-02T02:31:52.225Z,6.9
2023-04-02T02:34:06.020Z,6.9
2023-04-02T02:35:13.076Z,6.9
2023-04-02T02:36:20.233Z,6.9
2023-04-02T02:37:27.189Z,6.9
2023-04-02T02:38:33.936Z,6.9
2023-04-02T02:39:40.842Z,6.9
2023-04-02T02:40:48.070Z,6.9
2023-04-02T02:41:55.230Z,6.9
2023-04-02T02:43:02.316Z,6.8
2023-04-02T02:44:08.866Z,6.8
2023-04-02T02:45:15.876Z,6.8
2023-04-02T02:46:23.223Z,6.8
2023-04-02T02:47:30.257Z,6.8
2023-04-02T02:48:37.421Z,6.8
2023-04-02T02:49:46.578Z,6.7
2023-04-02T02:50:50.927Z,6.7
2023-04-02T02:51:58.599Z,6.8
2023-04-02T02:53:05.090Z,6.7
2023-04-02T02:54:12.316Z,6.7
2023-04-02T02:55:18.924Z,6.7
2023-04-02T02:57:33.258Z,6.7
2023-04-02T02:58:40.117Z,6.7
2023-04-02T02:59:47.228Z,6.7
2023-04-02T03:00:53.975Z,6.7
2023-04-02T03:02:01.012Z,6.7
2023-04-02T03:03:08.103Z,6.6
2023-04-02T03:04:15.204Z,6.6
2023-04-02T03:05:22.359Z,6.6
2023-04-02T03:06:28.926Z,6.6
2023-04-02T03:07:36.042Z,6.6
2023-04-02T03:08:43.057Z,6.6
2023-04-02T03:09:50.205Z,6.6
2023-04-02T03:10:56.830Z,6.6
2023-04-02T03:12:03.926Z,6.7
2023-04-02T03:13:11.012Z,6.7
2023-04-02T03:14:18.295Z,6.7
2023-04-02T03:15:25.120Z,6.7
2023-04-02T03:16:32.401Z,6.7
2023-04-02T03:17:38.835Z,6.7
2023-04-02T03:18:45.957Z,6.6
2023-04-02T03:19:53.036Z,6.7
2023-04-02T03:21:00.099Z,6.7
2023-04-02T03:22:07.019Z,6.7
2023-04-02T03:23:13.957Z,6.7
2023-04-02T03:24:21.054Z,6.7
2023-04-02T03:25:28.028Z,6.7
2023-04-02T03:26:35.274Z,6.7
2023-04-02T03:27:41.910Z,6.7
2023-04-02T03:28:49.002Z,6.7
2023-04-02T03:29:56.047Z,6.7
2023-04-02T03:31:03.115Z,6.7
2023-04-02T03:32:10.277Z,6.7
2023-04-02T03:33:16.823Z,6.7
2023-04-02T03:34:23.960Z,6.7
2023-04-02T03:35:31.013Z,6.7
2023-04-02T03:37:45.279Z,6.7
2023-04-02T03:38:52.012Z,6.7
2023-04-02T03:39:59.001Z,6.7
2023-04-02T03:41:07.999Z,6.7
2023-04-02T03:42:13.215Z,6.7
2023-04-02T03:43:20.282Z,6.7
2023-04-02T03:44:26.834Z,6.6
2023-04-02T03:45:34.161Z,6.6
2023-04-02T03:46:41.170Z,6.6
2023-04-02T03:47:48.170Z,6.6
2023-04-02T03:48:55.414Z,6.6
2023-04-02T03:50:02.032Z,6.6
2023-04-02T03:51:08.978Z,6.6
2023-04-02T03:52:16.175Z,6.6
2023-04-02T03:53:23.237Z,6.6
2023-04-02T03:54:30.356Z,6.6
2023-04-02T03:55:37.499Z,6.6
2023-04-02T03:56:44.009Z,6.5
2023-04-02T03:57:50.939Z,6.5
2023-04-02T03:58:58.233Z,6.5
2023-04-02T04:00:05.320Z,6.6
2023-04-02T04:01:11.969Z,6.5
2023-04-02T04:02:18.994Z,6.5
2023-04-02T04:03:26.004Z,6.5
2023-04-02T04:04:33.272Z,6.6
2023-04-02T04:05:40.166Z,6.6
2023-04-02T04:06:46.787Z,6.6
2023-04-02T04:07:53.972Z,6.5
2023-04-02T04:09:01.095Z,6.5
2023-04-02T04:10:08.074Z,6.5
2023-04-02T04:11:15.368Z,6.5
2023-04-02T04:12:21.908Z,6.5
2023-04-02T04:13:28.857Z,6.5
2023-04-02T04:14:36.126Z,6.5
2023-04-02T04:15:43.172Z,6.5
2023-04-02T04:16:50.334Z,6.5
2023-04-02T04:17:56.990Z,6.5
2023-04-02T04:19:03.956Z,6.5
2023-04-02T04:20:11.140Z,6.5
2023-04-02T04:21:18.220Z,6.5
2023-04-02T04:22:25.337Z,6.5
2023-04-02T04:23:31.949Z,6.5
2023-04-02T04:25:46.008Z,6.5
2023-04-02T04:26:53.332Z,6.5
2023-04-02T04:28:00.184Z,6.5
2023-04-02T04:29:06.992Z,6.5
2023-04-02T04:30:14.036Z,6.5
2023-04-02T04:31:21.846Z,6.5
2023-04-02T04:32:28.266Z,6.5
2023-04-02T04:33:35.232Z,6.5
2023-04-02T04:34:41.936Z,6.5
2023-04-02T04:35:48.929Z,6.5
2023-04-02T04:36:56.120Z,6.5
2023-04-02T04:38:03.133Z,6.5
2023-04-02T04:39:10.418Z,6.5
2023-04-02T04:41:24.028Z,6.5
2023-04-02T04:42:31.095Z,6.5
2023-04-02T04:43:38.121Z,6.5
2023-04-02T04:44:45.364Z,6.5
2023-04-02T04:45:51.878Z,6.5
2023-04-02T04:46:59.101Z,6.5
2023-04-02T04:48:06.074Z,6.5
2023-04-02T04:49:13.342Z,6.5
2023-04-02T04:50:19.828Z,6.5
2023-04-02T04:51:26.853Z,6.5
2023-04-02T04:52:33.981Z,6.5
2023-04-02T04:53:41.125Z,6.5
2023-04-02T04:54:48.259Z,6.5
2023-04-02T04:55:54.851Z,6.5
2023-04-02T04:57:02.019Z,6.5
2023-04-02T04:58:09.061Z,6.5
2023-04-02T04:59:16.780Z,6.5
2023-04-02T05:00:23.262Z,6.5
2023-04-02T05:01:29.917Z,6.5
2023-04-02T05:02:37.002Z,6.5
2023-04-02T05:03:43.959Z,6.5
2023-04-02T05:04:51.218Z,6.5
2023-04-02T05:05:58.308Z,6.5
2023-04-02T05:07:04.884Z,6.5
2023-04-02T05:08:12.078Z,6.5
2023-04-02T05:09:19.200Z,6.5
2023-04-02T05:10:26.187Z,6.5
2023-04-02T05:11:33.169Z,6.5
2023-04-02T05:12:39.931Z,6.5
2023-04-02T05:13:46.960Z,6.4
2023-04-02T05:14:54.034Z,6.4
2023-04-02T05:16:01.509Z,6.4
2023-04-02T05:17:08.300Z,6.4
2023-04-02T05:18:14.931Z,6.3
2023-04-02T05:19:22.006Z,6.3
2023-04-02T05:20:29.188Z,6.3
2023-04-02T05:21:36.092Z,6.3
2023-04-02T05:22:43.789Z,6.3
2023-04-02T05:23:49.919Z,6.3
2023-04-02T05:24:56.902Z,6.3
2023-04-02T05:26:04.026Z,6.3
2023-04-02T05:27:11.179Z,6.3
2023-04-02T05:28:18.322Z,6.3
2023-04-02T05:29:25.105Z,6.2
2023-04-02T05:30:31.992Z,6.2
2023-04-02T05:31:39.107Z,6.2
2023-04-02T05:32:46.251Z,6.2
2023-04-02T05:33:53.203Z,6.1
2023-04-02T05:34:59.766Z,6.1
2023-04-02T05:36:06.968Z,6.1
2023-04-02T05:37:14.146Z,6
2023-04-02T05:38:21.239Z,6
2023-04-02T05:39:28.529Z,6
2023-04-02T05:40:34.966Z,6
2023-04-02T05:41:42.063Z,6
2023-04-02T05:42:49.145Z,5.9
2023-04-02T05:45:03.414Z,5.9
2023-04-02T05:46:09.847Z,5.9
2023-04-02T05:47:17.055Z,5.8
2023-04-02T05:48:24.081Z,5.8
2023-04-02T05:49:31.098Z,5.8
2023-04-02T05:50:38.460Z,5.8
2023-04-02T05:51:44.936Z,5.8
2023-04-02T05:53:59.197Z,5.7
2023-04-02T05:55:06.132Z,5.7
2023-04-02T05:56:13.239Z,5.7
2023-04-02T05:57:20.206Z,5.6
2023-04-02T05:58:35.483Z,5.6
2023-04-02T05:59:34.232Z,5.6
2023-04-02T06:00:41.280Z,5.6
2023-04-02T06:01:48.566Z,5.6
2023-04-02T06:02:55.490Z,5.6
2023-04-02T06:04:01.974Z,5.6
2023-04-02T06:05:09.193Z,5.6
2023-04-02T06:06:16.391Z,5.5
2023-04-02T06:07:23.304Z,5.5
2023-04-02T06:08:29.814Z,5.5
2023-04-02T06:09:36.987Z,5.5
2023-04-02T06:10:44.222Z,5.5
2023-04-02T06:11:51.124Z,5.5
2023-04-02T06:12:58.245Z,5.5
2023-04-02T06:14:05.019Z,5.5
2023-04-02T06:15:11.925Z,5.4
2023-04-02T06:16:19.174Z,5.4
2023-04-02T06:17:26.209Z,5.3
2023-04-02T06:18:33.444Z,5.3
2023-04-02T06:19:39.886Z,5.3
2023-04-02T06:20:46.954Z,5.3
2023-04-02T06:21:54.067Z,5.3
2023-04-02T06:23:01.139Z,5.3
2023-04-02T06:24:08.413Z,5.3
2023-04-02T06:25:15.028Z,5.3
2023-04-02T06:26:22.131Z,5.3
2023-04-02T06:27:29.142Z,5.2
2023-04-02T06:28:36.356Z,5.2
2023-04-02T06:29:42.941Z,5.2
2023-04-02T06:30:50.046Z,5.2
2023-04-02T06:31:57.084Z,5.2
2023-04-02T06:33:04.586Z,5.2
2023-04-02T06:34:11.300Z,5.3
2023-04-02T06:35:17.937Z,5.3
2023-04-02T06:36:25.012Z,5.3
2023-04-02T06:37:32.211Z,5.3
2023-04-02T06:38:39.148Z,5.3
2023-04-02T06:39:46.457Z,5.3
2023-04-02T06:40:52.779Z,5.3
2023-04-02T06:41:59.860Z,5.3
2023-04-02T06:43:06.990Z,5.3
2023-04-02T06:44:14.261Z,5.4
2023-04-02T06:45:21.335Z,5.4
2023-04-02T06:46:27.782Z,5.5
2023-04-02T06:48:43.451Z,5.6
2023-04-02T06:49:49.282Z,5.6
2023-04-02T06:50:56.230Z,5.7
2023-04-02T06:52:02.808Z,5.8
2023-04-02T06:53:09.870Z,5.9
2023-04-02T06:54:17.161Z,6
2023-04-02T06:55:24.157Z,6
2023-04-02T06:56:31.317Z,6.2
2023-04-02T06:57:37.887Z,6.2
2023-04-02T06:58:45.150Z,6.3
2023-04-02T06:59:52.119Z,6.3
2023-04-02T07:00:59.222Z,6.4
2023-04-02T07:02:06.231Z,6.4
2023-04-02T07:03:12.905Z,6.5
2023-04-02T07:04:19.965Z,6.5
2023-04-02T07:05:27.053Z,6.6
2023-04-02T07:06:34.142Z,6.7
2023-04-02T07:07:41.202Z,6.7
2023-04-02T07:08:47.981Z,6.7
2023-04-02T07:09:55.090Z,6.7
2023-04-02T07:11:02.117Z,6.8
2023-04-02T07:12:09.217Z,6.8
2023-04-02T07:13:16.250Z,7
2023-04-02T07:14:22.824Z,7
2023-04-02T07:15:30.080Z,7
2023-04-02T07:16:37.123Z,7.1
2023-04-02T07:17:44.287Z,7.2
2023-04-02T07:18:51.363Z,7.2
2023-04-02T07:19:57.979Z,7.2
2023-04-02T07:22:12.171Z,7.3
2023-04-02T07:23:19.290Z,7.3
2023-04-02T07:24:26.474Z,7.3
2023-04-02T07:25:33.121Z,7.4
2023-04-02T07:26:39.975Z,7.4
2023-04-02T07:27:47.056Z,7.4
2023-04-02T07:28:54.285Z,7.4
2023-04-02T07:30:01.266Z,7.5
2023-04-02T07:31:08.154Z,7.5
2023-04-02T07:32:15.090Z,7.5
2023-04-02T07:33:22.249Z,7.5
2023-04-02T07:34:29.344Z,7.6
2023-04-02T07:35:36.644Z,7.6
2023-04-02T07:36:42.975Z,7.6
2023-04-02T07:37:50.066Z,7.7
2023-04-02T07:38:57.311Z,7.7
2023-04-02T07:40:04.285Z,7.7
2023-04-02T07:41:11.378Z,7.7
2023-04-02T07:42:17.826Z,7.7
2023-04-02T07:43:24.970Z,7.7
2023-04-02T07:44:32.074Z,7.8
2023-04-02T07:45:39.253Z,7.8
2023-04-02T07:46:46.315Z,7.9
2023-04-02T07:47:53.060Z,7.9
2023-04-02T07:48:59.992Z,7.9
2023-04-02T07:50:07.285Z,7.9
2023-04-02T07:52:20.898Z,8
2023-04-02T07:53:27.951Z,8
2023-04-02T07:54:35.187Z,8
2023-04-02T07:55:42.091Z,8.1
2023-04-02T07:56:49.421Z,8.1
2023-04-02T07:57:55.920Z,8.1
2023-04-02T07:59:02.890Z,8.1
2023-04-02T08:00:10.167Z,8.1
2023-04-02T08:01:17.284Z,8.2
2023-04-02T08:02:24.416Z,8.2
2023-04-02T08:03:31.181Z,8.2
2023-04-02T08:04:37.907Z,8.2
2023-04-02T08:05:45.264Z,8.2
2023-04-02T08:06:52.108Z,8.2
2023-04-02T08:07:59.488Z,8.2
2023-04-02T08:09:05.993Z,8.3
2023-04-02T08:10:13.628Z,8.3
2023-04-02T08:11:19.975Z,8.4
2023-04-02T08:12:27.342Z,8.4
2023-04-02T08:13:34.216Z,8.4
2023-04-02T08:14:41.141Z,8.4
2023-04-02T08:15:47.868Z,8.4
2023-04-02T08:16:55.078Z,8.4
2023-04-02T08:18:02.414Z,8.5
2023-04-02T08:19:09.475Z,8.5
2023-04-02T08:20:15.828Z,8.5
2023-04-02T08:21:22.925Z,8.6
2023-04-02T08:22:30.162Z,8.6
2023-04-02T08:23:37.429Z,8.6
2023-04-02T08:24:44.396Z,8.6
2023-04-02T08:25:50.965Z,8.6
2023-04-02T08:26:57.995Z,8.7
2023-04-02T08:28:05.034Z,8.7
2023-04-02T08:29:12.118Z,8.8
2023-04-02T08:30:19.237Z,8.8
2023-04-02T08:31:25.875Z,8.8
2023-04-02T08:32:33.072Z,8.8
2023-04-02T08:33:40.112Z,8.9
2023-04-02T08:34:47.332Z,8.9
2023-04-02T08:35:54.452Z,8.9
2023-04-02T08:37:00.808Z,8.9
2023-04-02T08:38:08.078Z,8.9
2023-04-02T08:39:15.192Z,9
2023-04-02T08:40:22.358Z,9.1
2023-04-02T08:41:29.397Z,9.1
2023-04-02T08:42:36.013Z,9.1
2023-04-02T08:43:43.110Z,9.1
2023-04-02T08:44:50.071Z,9.1
2023-04-02T08:45:57.186Z,9.2
2023-04-02T08:47:04.267Z,9.3
2023-04-02T08:48:10.955Z,9.3
2023-04-02T08:50:25.312Z,9.4
2023-04-02T08:51:32.401Z,9.4
2023-04-02T08:52:39.257Z,9.4
2023-04-02T08:53:45.974Z,9.5
2023-04-02T08:56:00.059Z,9.6
2023-04-02T08:57:07.453Z,9.6
2023-04-02T08:58:13.755Z,9.7
2023-04-02T08:59:21.035Z,9.8
2023-04-02T09:00:28.060Z,9.8
2023-04-02T09:01:35.139Z,9.8
2023-04-02T09:02:42.392Z,9.9
2023-04-02T09:03:49.540Z,9.8
2023-04-02T09:04:56.074Z,10
2023-04-02T09:06:02.979Z,10
2023-04-02T09:07:10.196Z,10
2023-04-02T09:08:17.193Z,10.1
2023-04-02T09:09:23.932Z,10.2
2023-04-02T09:10:30.953Z,10.3
2023-04-02T09:11:37.950Z,10.4
2023-04-02T09:12:45.094Z,10.5
2023-04-02T09:13:52.201Z,10.5
2023-04-02T09:14:58.749Z,10.7
2023-04-02T09:16:06.076Z,10.8
2023-04-02T09:17:12.962Z,10.9
2023-04-02T09:18:20.231Z,11
2023-04-02T09:19:27.242Z,11
2023-04-02T09:20:33.819Z,11
2023-04-02T09:21:40.882Z,11
2023-04-02T09:22:47.973Z,10.9
2023-04-02T09:23:55.217Z,10.9
2023-04-02T09:25:02.288Z,11
2023-04-02T09:26:08.891Z,11
2023-04-02T09:27:15.925Z,11.1
2023-04-02T09:28:23.264Z,11.1
2023-04-02T09:29:30.134Z,11.1
2023-04-02T09:30:37.211Z,11.1
2023-04-02T09:31:43.832Z,11.1
2023-04-02T09:32:51.094Z,11
2023-04-02T09:33:58.079Z,11
2023-04-02T09:35:12.236Z,11
2023-04-02T09:36:13.953Z,11
2023-04-02T09:37:18.870Z,11
2023-04-02T09:38:26.020Z,11
2023-04-02T09:39:33.021Z,10.9
2023-04-02T09:40:40.104Z,10.9
2023-04-02T09:41:55.700Z,10.8
2023-04-02T09:42:53.904Z,10.8
2023-04-02T09:44:01.071Z,10.8
2023-04-02T09:45:08.145Z,10.8
2023-04-02T09:46:15.300Z,10.8
2023-04-02T09:47:22.257Z,10.8
2023-04-02T09:48:28.951Z,10.8
2023-04-02T09:49:36.044Z,10.8
2023-04-02T09:50:43.167Z,10.8
2023-04-02T09:51:50.220Z,10.8
2023-04-02T09:52:57.345Z,10.7
2023-04-02T09:54:04.103Z,10.7
2023-04-02T09:55:11.046Z,10.7
2023-04-02T09:56:18.011Z,10.6
2023-04-02T09:57:25.387Z,10.6
2023-04-02T09:59:38.958Z,10.5
2023-04-02T10:00:46.286Z,10.5
2023-04-02T10:01:53.060Z,10.5
2023-04-02T10:03:00.358Z,10.5
2023-04-02T10:04:07.333Z,10.5
2023-04-02T10:05:15.668Z,10.4
2023-04-02T10:06:21.049Z,10.4
2023-04-02T10:07:28.153Z,10.4
2023-04-02T10:08:35.339Z,10.4
2023-04-02T10:09:41.937Z,10.4
2023-04-02T10:10:48.980Z,10.4
2023-04-02T10:11:56.176Z,10.4
2023-04-02T10:13:03.069Z,10.4
2023-04-02T10:14:10.151Z,10.4
2023-04-02T10:15:16.849Z,10.4
2023-04-02T10:16:25.645Z,10.4
2023-04-02T10:18:38.175Z,10.4
2023-04-02T10:19:45.315Z,10.3
2023-04-02T10:20:51.897Z,10.3
2023-04-02T10:21:58.946Z,10.3
2023-04-02T10:23:06.649Z,10.3
2023-04-02T10:24:13.334Z,10.3
2023-04-02T10:25:20.311Z,10.3
2023-04-02T10:26:26.777Z,10.3
2023-04-02T10:27:33.996Z,10.3
2023-04-02T10:28:46.634Z,10.3
2023-04-02T10:29:48.219Z,10.3
2023-04-02T10:30:55.287Z,10.3
2023-04-02T10:32:01.784Z,10.3
2023-04-02T10:33:09.089Z,10.3
2023-04-02T10:34:15.977Z,10.3
2023-04-02T10:35:23.214Z,10.2
2023-04-02T10:36:30.280Z,10.2
2023-04-02T10:37:36.795Z,10.3
2023-04-02T10:38:44.057Z,10.3
2023-04-02T10:39:51.124Z,10.3
2023-04-02T10:40:58.172Z,10.4
2023-04-02T10:42:05.209Z,10.5
2023-04-02T10:43:11.943Z,10.5
2023-04-02T10:44:20.623Z,10.5
2023-04-02T10:45:28.292Z,10.5
2023-04-02T10:46:33.177Z,10.5
2023-04-02T10:47:40.331Z,10.5
2023-04-02T10:48:46.817Z,10.5
2023-04-02T10:49:54.356Z,10.6
2023-04-02T10:51:01.117Z,10.7
2023-04-02T10:52:08.319Z,10.8
2023-04-02T10:53:15.301Z,10.8
2023-04-02T10:54:21.886Z,10.7
2023-04-02T10:55:29.048Z,10.7
2023-04-02T10:56:47.830Z,10.7
2023-04-02T10:57:43.362Z,10.7
2023-04-02T10:58:50.220Z,10.7
2023-04-02T10:59:57.022Z,10.7
2023-04-02T11:01:03.935Z,10.8
2023-04-02T11:03:18.358Z,10.8
2023-04-02T11:04:25.295Z,10.8
2023-04-02T11:05:31.969Z,10.9
2023-04-02T11:06:38.913Z,10.9
2023-04-02T11:07:46.189Z,11
2023-04-02T11:08:53.338Z,11
2023-04-02T11:10:00.294Z,11
2023-04-02T11:11:08.406Z,11
2023-04-02T11:12:13.943Z,11
2023-04-02T11:13:21.138Z,11.1
2023-04-02T11:14:28.187Z,11.3
2023-04-02T11:15:35.417Z,11.4
2023-04-02T11:16:44.637Z,11.4
2023-04-02T11:17:49.191Z,11.3
2023-04-02T11:18:56.204Z,11.3
2023-04-02T11:20:03.186Z,11.3
2023-04-02T11:21:10.333Z,11.3
2023-04-02T11:22:16.870Z,11.2
2023-04-02T11:23:24.098Z,11
2023-04-02T11:24:31.226Z,11
2023-04-02T11:25:38.147Z,11
2023-04-02T11:26:44.779Z,11
2023-04-02T11:27:52.069Z,11
2023-04-02T11:28:58.930Z,11
2023-04-02T11:30:06.237Z,11
2023-04-02T11:31:13.269Z,11
2023-04-02T11:32:19.845Z,10.9
2023-04-02T11:33:36.630Z,10.7
2023-04-02T11:34:33.980Z,10.7
2023-04-02T11:35:41.452Z,10.7
2023-04-02T11:36:48.274Z,10.7
2023-04-02T11:37:54.916Z,10.8
2023-04-02T11:39:14.637Z,10.8
2023-04-02T11:40:09.131Z,10.9
2023-04-02T11:41:16.178Z,11
2023-04-02T11:42:23.304Z,11.2
2023-04-02T11:43:29.969Z,11.3
2023-04-02T11:44:37.102Z,11.4
2023-04-02T11:46:51.233Z,11.6
2023-04-02T11:47:58.353Z,11.6
2023-04-02T11:49:05.003Z,11.6
2023-04-02T11:50:12.133Z,11.5
2023-04-02T11:51:21.137Z,11.4
2023-04-02T11:52:26.203Z,11.4
2023-04-02T11:53:33.227Z,11.4
2023-04-02T11:54:39.797Z,11.4
2023-04-02T11:55:47.025Z,11.3
2023-04-02T11:56:53.975Z,11.4
2023-04-02T11:58:01.176Z,11.4
2023-04-02T11:59:08.270Z,11.3
2023-04-02T12:00:16.863Z,11.4
2023-04-02T12:01:22.058Z,11.3
2023-04-02T12:02:29.185Z,11.3
2023-04-02T12:03:36.177Z,11.3
2023-04-02T12:04:43.365Z,11.3
2023-04-02T12:06:56.912Z,11.3
2023-04-02T12:08:04.131Z,11.3
2023-04-02T12:09:11.252Z,11.3
2023-04-02T12:10:18.694Z,11.3
2023-04-02T12:11:24.795Z,11.3
2023-04-02T12:12:32.186Z,11.3
2023-04-02T12:13:38.997Z,11.3
2023-04-02T12:14:46.361Z,11.2
2023-04-02T12:15:53.380Z,11.2
2023-04-02T12:16:59.996Z,11.2
2023-04-02T12:18:07.225Z,11.1
2023-04-02T12:19:14.039Z,11.1
2023-04-02T12:20:21.293Z,11
2023-04-02T12:21:28.375Z,11
2023-04-02T12:22:34.927Z,11
2023-04-02T12:23:42.136Z,11
2023-04-02T12:24:49.671Z,11
2023-04-02T12:25:56.269Z,11
2023-04-02T12:27:03.226Z,11
2023-04-02T12:28:09.805Z,11
2023-04-02T12:29:17.082Z,11
2023-04-02T12:30:24.157Z,11
2023-04-02T12:31:31.209Z,11
2023-04-02T12:32:45.865Z,11
2023-04-02T12:33:44.885Z,11
2023-04-02T12:34:52.064Z,11
2023-04-02T12:35:59.063Z,11
2023-04-02T12:37:06.162Z,11.1
2023-04-02T12:38:13.451Z,11.1
2023-04-02T12:39:19.822Z,11.2
2023-04-02T12:40:27.034Z,11.2
2023-04-02T12:41:34.189Z,11.3
2023-04-02T12:42:41.268Z,11.4
2023-04-02T12:43:47.878Z,11.4
2023-04-02T12:44:54.904Z,11.4
2023-04-02T12:46:02.103Z,11.4
2023-04-02T12:47:09.040Z,11.5
2023-04-02T12:48:16.196Z,11.5
2023-04-02T12:49:22.881Z,11.5
2023-04-02T12:50:29.934Z,11.4
2023-04-02T12:51:37.089Z,11.4
2023-04-02T12:52:44.166Z,11.4
2023-04-02T12:53:51.221Z,11.4
2023-04-02T12:54:57.789Z,11.4
2023-04-02T12:56:04.967Z,11.4
2023-04-02T12:57:12.040Z,11.4
2023-04-02T12:58:19.206Z,11.4
2023-04-02T12:59:26.194Z,11.4
2023-04-02T13:00:32.788Z,11.3
2023-04-02T13:01:39.972Z,11.3
2023-04-02T13:02:47.242Z,11.3
2023-04-02T13:03:54.352Z,11.3
2023-04-02T13:05:01.344Z,11.3
2023-04-02T13:06:07.760Z,11.3
2023-04-02T13:07:14.975Z,11.3
2023-04-02T13:08:22.087Z,11.3
2023-04-02T13:10:36.332Z,11.3
2023-04-02T13:11:42.817Z,11.3
2023-04-02T13:12:49.936Z,11.3
2023-04-02T13:15:04.244Z,11.3
2023-04-02T13:16:11.308Z,11.3
2023-04-02T13:17:17.854Z,11.3
2023-04-02T13:18:24.909Z,11.3
2023-04-02T13:19:32.116Z,11.3
2023-04-02T13:20:39.332Z,11.2
2023-04-02T13:21:46.363Z,11.2
2023-04-02T13:22:52.816Z,11.2
2023-04-02T13:24:00.053Z,11.3
2023-04-02T13:25:07.090Z,11.2
2023-04-02T13:26:14.260Z,11.2
2023-04-02T13:27:21.233Z,11.1
2023-04-02T13:28:28.399Z,11
2023-04-02T13:29:35.063Z,11
2023-04-02T13:30:42.165Z,11
2023-04-02T13:31:49.252Z,11
2023-04-02T13:32:56.486Z,10.9
2023-04-02T13:34:02.814Z,10.9
2023-04-02T13:35:10.025Z,10.9
2023-04-02T13:36:17.052Z,10.8
2023-04-02T13:37:24.348Z,10.9
2023-04-02T13:38:30.778Z,10.8
2023-04-02T13:39:37.870Z,10.8
2023-04-02T13:40:44.944Z,10.7
2023-04-02T13:41:52.165Z,10.7
2023-04-02T13:42:59.246Z,10.7
2023-04-02T13:44:05.950Z,10.7
2023-04-02T13:45:13.018Z,10.6
2023-04-02T13:46:20.072Z,10.6
2023-04-02T13:47:27.233Z,10.6
2023-04-02T13:48:34.198Z,10.6
2023-04-02T13:49:40.817Z,10.6
2023-04-02T13:50:47.840Z,10.5
2023-04-02T13:51:55.061Z,10.5
2023-04-02T13:53:02.187Z,10.5
2023-04-02T13:54:09.228Z,10.4
2023-04-02T13:55:15.886Z,10.4
2023-04-02T13:56:23.089Z,10.4
2023-04-02T13:57:30.039Z,10.4
2023-04-02T13:58:37.137Z,10.4
2023-04-02T13:59:44.252Z,10.4
2023-04-02T14:00:50.867Z,10.4
2023-04-02T14:01:57.968Z,10.4
2023-04-02T14:03:05.208Z,10.4
2023-04-02T14:04:12.169Z,10.4
2023-04-02T14:05:19.322Z,10.4
2023-04-02T14:06:25.874Z,10.4
2023-04-02T14:07:32.885Z,10.4
2023-04-02T14:08:40.048Z,10.4
2023-04-02T14:09:47.125Z,10.5
2023-04-02T14:10:54.303Z,10.5
2023-04-02T14:12:00.863Z,10.5
2023-04-02T14:14:15.374Z,10.6
2023-04-02T14:15:22.277Z,10.6
2023-04-02T14:16:29.220Z,10.7
2023-04-02T14:17:35.984Z,10.7
2023-04-02T14:18:42.948Z,10.7
2023-04-02T14:19:50.100Z,10.7
2023-04-02T14:20:57.198Z,10.8
2023-04-02T14:22:04.291Z,10.8
2023-04-02T14:23:10.841Z,10.8
2023-04-02T14:24:17.989Z,10.8
2023-04-02T14:25:25.094Z,10.8
2023-04-02T14:26:32.222Z,10.8
2023-04-02T14:27:40.317Z,10.8
2023-04-02T14:28:45.794Z,10.8
2023-04-02T14:29:53.037Z,10.8
2023-04-02T14:31:00.178Z,10.9
2023-04-02T14:32:07.124Z,10.8
2023-04-02T14:33:14.301Z,10.9
2023-04-02T14:34:20.860Z,10.8
2023-04-02T14:35:27.896Z,10.9
2023-04-02T14:36:35.035Z,10.9
2023-04-02T14:37:42.212Z,10.9
2023-04-02T14:38:49.279Z,10.8
2023-04-02T14:39:55.951Z,10.9
2023-04-02T14:41:03.005Z,10.9
2023-04-02T14:43:17.131Z,11
2023-04-02T14:44:24.340Z,11
2023-04-02T14:45:30.788Z,11.1
2023-04-02T14:46:38.117Z,11.1
2023-04-02T14:47:45.109Z,11.2
2023-04-02T14:48:52.240Z,11.2
2023-04-02T14:49:58.851Z,11.2
2023-04-02T14:51:08.250Z,11.2
2023-04-02T14:52:12.943Z,11.1
2023-04-02T14:53:20.133Z,11
2023-04-02T14:54:27.251Z,11
2023-04-02T14:55:33.890Z,11
2023-04-02T14:56:40.800Z,11
2023-04-02T14:57:47.958Z,11
2023-04-02T14:58:55.167Z,11
2023-04-02T15:00:02.201Z,11
2023-04-02T15:01:08.725Z,10.9
2023-04-02T15:02:16.098Z,10.9
2023-04-02T15:03:23.165Z,10.8
2023-04-02T15:04:30.018Z,10.9
2023-04-02T15:05:37.384Z,10.9
2023-04-02T15:06:43.841Z,10.9
2023-04-02T15:07:50.988Z,10.9
2023-04-02T15:09:08.335Z,11
2023-04-02T15:10:05.236Z,11
2023-04-02T15:11:12.311Z,11
2023-04-02T15:12:18.717Z,11
2023-04-02T15:13:25.861Z,11
2023-04-02T15:14:33.064Z,10.9
2023-04-02T15:15:41.064Z,10.9
2023-04-02T15:17:53.987Z,10.8
2023-04-02T15:19:01.087Z,10.8
2023-04-02T15:20:08.214Z,10.9
2023-04-02T15:21:15.298Z,10.9
2023-04-02T15:22:22.423Z,10.9
2023-04-02T15:23:29.014Z,10.8
2023-04-02T15:24:35.869Z,10.8
2023-04-02T15:25:43.381Z,10.9
2023-04-02T15:26:50.044Z,10.8
2023-04-02T15:27:57.177Z,10.8
2023-04-02T15:29:03.992Z,10.9
2023-04-02T15:30:11.110Z,10.9
2023-04-02T15:31:18.335Z,10.9
2023-04-02T15:32:25.352Z,10.8
2023-04-02T15:33:32.395Z,10.8
2023-04-02T15:34:38.998Z,10.8
2023-04-02T15:35:46.597Z,10.8
2023-04-02T15:36:53.206Z,10.8
2023-04-02T15:38:00.296Z,10.8
2023-04-02T15:39:07.214Z,10.8
2023-04-02T15:40:13.839Z,10.9
2023-04-02T15:41:23.026Z,10.9
2023-04-02T15:42:28.324Z,10.9
2023-04-02T15:43:35.500Z,10.8
2023-04-02T15:44:42.478Z,10.9